sensor_id;sensor_type;location;lat;lon;timestamp;pressure;altitude;pressure_sealevel;temperature;humidity
43621;BME280;29213;50.770;7.298;2023-03-14T00:00:10;98549.78;;;9.17;55.89
43621;BME280;29213;50.770;7.298;2023-03-14T00:02:37;98583.91;;;9.33;55.56
43621;BME280;29213;50.770;7.298;2023-03-14T00:05:02;98563.88;;;9.24;55.96
43621;BME280;29213;50.770;7.298;2023-03-14T00:07:35;98541.22;;;9.15;55.85
43621;BME280;29213;50.770;7.298;2023-03-14T00:10:02;98580.03;;;9.22;55.98
43621;BME280;29213;50.770;7.298;2023-03-14T00:12:29;98553.25;;;9.04;55.91
43621;BME280;29213;50.770;7.298;2023-03-14T00:14:55;98589.03;;;9.21;55.75
43621;BME280;29213;50.770;7.298;2023-03-14T00:17:20;98606.59;;;9.22;55.95
43621;BME280;29213;50.770;7.298;2023-03-14T00:19:45;98560.19;;;8.91;56.00
43621;BME280;29213;50.770;7.298;2023-03-14T00:22:11;98594.13;;;9.16;56.01
43621;BME280;29213;50.770;7.298;2023-03-14T00:24:36;98606.97;;;9.13;56.28
43621;BME280;29213;50.770;7.298;2023-03-14T00:27:01;98624.94;;;9.04;56.29
43621;BME280;29213;50.770;7.298;2023-03-14T00:29:27;98560.94;;;8.58;56.82
43621;BME280;29213;50.770;7.298;2023-03-14T00:31:52;98617.56;;;8.92;56.77
43621;BME280;29213;50.770;7.298;2023-03-14T00:34:18;98600.66;;;8.93;56.98
43621;BME280;29213;50.770;7.298;2023-03-14T00:36:44;98579.78;;;8.83;56.40
43621;BME280;29213;50.770;7.298;2023-03-14T00:39:09;98590.63;;;8.95;56.50
43621;BME280;29213;50.770;7.298;2023-03-14T00:41:35;98552.22;;;8.85;56.72
43621;BME280;29213;50.770;7.298;2023-03-14T00:44:00;98574.72;;;9.02;56.45
43621;BME280;29213;50.770;7.298;2023-03-14T00:46:26;98575.75;;;9.15;56.29
43621;BME280;29213;50.770;7.298;2023-03-14T00:48:51;98576.56;;;9.29;56.30
43621;BME280;29213;50.770;7.298;2023-03-14T00:51:16;98574.69;;;9.36;55.65
43621;BME280;29213;50.770;7.298;2023-03-14T00:53:43;98527.53;;;9.04;55.60
43621;BME280;29213;50.770;7.298;2023-03-14T00:56:10;98552.84;;;9.14;55.75
43621;BME280;29213;50.770;7.298;2023-03-14T00:58:36;98579.00;;;9.23;55.90
43621;BME280;29213;50.770;7.298;2023-03-14T01:01:09;98580.25;;;9.28;55.54
43621;BME280;29213;50.770;7.298;2023-03-14T01:03:35;98593.69;;;9.13;55.47
43621;BME280;29213;50.770;7.298;2023-03-14T01:08:37;98527.50;;;8.70;55.83
43621;BME280;29213;50.770;7.298;2023-03-14T01:11:11;98592.69;;;9.14;55.73
43621;BME280;29213;50.770;7.298;2023-03-14T01:13:37;98573.47;;;9.12;56.20
43621;BME280;29213;50.770;7.298;2023-03-14T01:16:04;98564.69;;;9.04;56.07
43621;BME280;29213;50.770;7.298;2023-03-14T01:18:32;98597.59;;;9.37;55.71
43621;BME280;29213;50.770;7.298;2023-03-14T01:20:58;98578.78;;;9.12;55.79
43621;BME280;29213;50.770;7.298;2023-03-14T01:23:24;98560.81;;;8.93;55.99
43621;BME280;29213;50.770;7.298;2023-03-14T01:25:49;98587.78;;;9.10;56.38
43621;BME280;29213;50.770;7.298;2023-03-14T01:28:15;98528.13;;;8.93;56.13
43621;BME280;29213;50.770;7.298;2023-03-14T01:30:41;98525.47;;;8.93;56.22
43621;BME280;29213;50.770;7.298;2023-03-14T01:33:06;98541.19;;;9.08;55.94
43621;BME280;29213;50.770;7.298;2023-03-14T01:35:32;98531.41;;;8.95;55.70
43621;BME280;29213;50.770;7.298;2023-03-14T01:37:57;98504.66;;;8.83;55.90
43621;BME280;29213;50.770;7.298;2023-03-14T01:40:23;98533.22;;;9.01;55.78
43621;BME280;29213;50.770;7.298;2023-03-14T01:42:56;98568.59;;;9.35;56.08
43621;BME280;29213;50.770;7.298;2023-03-14T01:48:27;98513.22;;;8.92;56.13
43621;BME280;29213;50.770;7.298;2023-03-14T01:50:53;98542.84;;;9.16;56.47
43621;BME280;29213;50.770;7.298;2023-03-14T01:53:19;98554.06;;;9.25;56.36
43621;BME280;29213;50.770;7.298;2023-03-14T01:55:50;98537.34;;;9.17;56.20
43621;BME280;29213;50.770;7.298;2023-03-14T01:58:17;98548.16;;;9.09;56.77
43621;BME280;29213;50.770;7.298;2023-03-14T02:00:42;98547.94;;;9.10;57.91
43621;BME280;29213;50.770;7.298;2023-03-14T02:03:15;98526.28;;;8.73;60.07
43621;BME280;29213;50.770;7.298;2023-03-14T02:05:42;98547.09;;;8.69;59.96
43621;BME280;29213;50.770;7.298;2023-03-14T02:08:14;98555.09;;;9.03;59.59
43621;BME280;29213;50.770;7.298;2023-03-14T02:10:43;98561.66;;;9.28;59.20
43621;BME280;29213;50.770;7.298;2023-03-14T02:13:10;98564.91;;;9.30;59.12
43621;BME280;29213;50.770;7.298;2023-03-14T02:15:37;98553.47;;;9.22;59.58
43621;BME280;29213;50.770;7.298;2023-03-14T02:18:03;98544.88;;;9.07;60.64
43621;BME280;29213;50.770;7.298;2023-03-14T02:23:01;98540.38;;;8.74;60.35
43621;BME280;29213;50.770;7.298;2023-03-14T02:28:07;98529.94;;;8.59;60.80
43621;BME280;29213;50.770;7.298;2023-03-14T02:30:33;98542.81;;;8.68;60.61
43621;BME280;29213;50.770;7.298;2023-03-14T02:33:03;98537.28;;;8.63;60.48
43621;BME280;29213;50.770;7.298;2023-03-14T02:35:33;98554.69;;;8.93;60.28
43621;BME280;29213;50.770;7.298;2023-03-14T02:38:05;98542.03;;;9.02;59.91
43621;BME280;29213;50.770;7.298;2023-03-14T02:40:33;98540.81;;;8.91;59.45
43621;BME280;29213;50.770;7.298;2023-03-14T02:42:59;98495.84;;;8.55;58.82
43621;BME280;29213;50.770;7.298;2023-03-14T02:47:54;98503.41;;;8.72;58.72
43621;BME280;29213;50.770;7.298;2023-03-14T02:50:25;98500.78;;;8.79;58.75
43621;BME280;29213;50.770;7.298;2023-03-14T02:52:52;98496.06;;;8.81;58.28
43621;BME280;29213;50.770;7.298;2023-03-14T02:55:22;98484.41;;;8.82;58.42
43621;BME280;29213;50.770;7.298;2023-03-14T02:57:47;98505.66;;;9.09;57.58
43621;BME280;29213;50.770;7.298;2023-03-14T03:00:13;98504.44;;;8.98;56.65
43621;BME280;29213;50.770;7.298;2023-03-14T03:02:40;98496.06;;;9.01;56.96
43621;BME280;29213;50.770;7.298;2023-03-14T03:05:05;98464.81;;;8.90;56.81
43621;BME280;29213;50.770;7.298;2023-03-14T03:07:31;98451.97;;;8.80;56.72
43621;BME280;29213;50.770;7.298;2023-03-14T03:09:56;98440.53;;;8.59;56.50
43621;BME280;29213;50.770;7.298;2023-03-14T03:12:21;98481.78;;;8.75;56.54
43621;BME280;29213;50.770;7.298;2023-03-14T03:14:47;98493.84;;;8.78;56.68
43621;BME280;29213;50.770;7.298;2023-03-14T03:17:12;98450.75;;;8.49;57.08
43621;BME280;29213;50.770;7.298;2023-03-14T03:19:38;98498.28;;;8.70;56.65
43621;BME280;29213;50.770;7.298;2023-03-14T03:22:03;98442.56;;;8.43;57.03
43621;BME280;29213;50.770;7.298;2023-03-14T03:24:28;98487.88;;;8.55;56.54
43621;BME280;29213;50.770;7.298;2023-03-14T03:26:54;98469.69;;;8.39;57.15
43621;BME280;29213;50.770;7.298;2023-03-14T03:29:20;98466.00;;;8.40;56.91
43621;BME280;29213;50.770;7.298;2023-03-14T03:31:45;98479.91;;;8.55;56.93
43621;BME280;29213;50.770;7.298;2023-03-14T03:34:11;98509.13;;;8.69;56.60
43621;BME280;29213;50.770;7.298;2023-03-14T03:36:38;98470.50;;;8.33;56.74
43621;BME280;29213;50.770;7.298;2023-03-14T03:39:03;98496.47;;;8.64;56.94
43621;BME280;29213;50.770;7.298;2023-03-14T03:41:29;98469.91;;;8.51;56.38
43621;BME280;29213;50.770;7.298;2023-03-14T03:43:55;98463.19;;;8.48;56.38
43621;BME280;29213;50.770;7.298;2023-03-14T03:46:21;98450.94;;;8.47;56.50
43621;BME280;29213;50.770;7.298;2023-03-14T03:48:46;98434.63;;;8.43;56.38
43621;BME280;29213;50.770;7.298;2023-03-14T03:51:15;98461.97;;;8.64;56.34
43621;BME280;29213;50.770;7.298;2023-03-14T03:53:42;98445.25;;;8.64;55.76
43621;BME280;29213;50.770;7.298;2023-03-14T03:56:08;98421.56;;;8.49;56.44
43621;BME280;29213;50.770;7.298;2023-03-14T03:58:34;98459.31;;;8.71;55.98
43621;BME280;29213;50.770;7.298;2023-03-14T04:00:59;98449.94;;;8.55;55.93
43621;BME280;29213;50.770;7.298;2023-03-14T04:03:25;98416.66;;;8.46;56.15
43621;BME280;29213;50.770;7.298;2023-03-14T04:05:58;98417.03;;;8.42;56.30
43621;BME280;29213;50.770;7.298;2023-03-14T04:08:24;98455.22;;;8.68;56.26
43621;BME280;29213;50.770;7.298;2023-03-14T04:10:49;98468.09;;;8.78;56.35
43621;BME280;29213;50.770;7.298;2023-03-14T04:13:18;98472.41;;;8.79;55.37
43621;BME280;29213;50.770;7.298;2023-03-14T04:15:44;98363.38;;;8.13;55.49
43621;BME280;29213;50.770;7.298;2023-03-14T04:18:09;98411.94;;;8.34;55.63
43621;BME280;29213;50.770;7.298;2023-03-14T04:20:35;98456.25;;;8.81;56.24
43621;BME280;29213;50.770;7.298;2023-03-14T04:23:00;98411.94;;;8.48;55.61
43621;BME280;29213;50.770;7.298;2023-03-14T04:25:25;98379.50;;;8.25;56.28
43621;BME280;29213;50.770;7.298;2023-03-14T04:27:51;98450.75;;;8.62;56.23
43621;BME280;29213;50.770;7.298;2023-03-14T04:30:16;98467.06;;;8.59;56.29
43621;BME280;29213;50.770;7.298;2023-03-14T04:32:41;98449.72;;;8.43;56.82
43621;BME280;29213;50.770;7.298;2023-03-14T04:35:07;98434.63;;;8.43;56.88
43621;BME280;29213;50.770;7.298;2023-03-14T04:37:32;98453.78;;;8.59;56.54
43621;BME280;29213;50.770;7.298;2023-03-14T04:39:58;98450.16;;;8.60;56.31
43621;BME280;29213;50.770;7.298;2023-03-14T04:42:23;98450.94;;;8.67;56.37
43621;BME280;29213;50.770;7.298;2023-03-14T04:44:48;98444.81;;;8.67;56.04
43621;BME280;29213;50.770;7.298;2023-03-14T04:47:15;98389.91;;;8.34;56.27
43621;BME280;29213;50.770;7.298;2023-03-14T04:49:40;98398.69;;;8.48;56.23
43621;BME280;29213;50.770;7.298;2023-03-14T04:52:05;98387.25;;;8.40;56.33
43621;BME280;29213;50.770;7.298;2023-03-14T04:54:31;98386.25;;;8.41;58.24
43621;BME280;29213;50.770;7.298;2023-03-14T04:56:56;98431.16;;;8.50;60.35
43621;BME280;29213;50.770;7.298;2023-03-14T04:59:22;98427.06;;;8.40;62.25
43621;BME280;29213;50.770;7.298;2023-03-14T05:01:47;98414.16;;;8.17;63.66
43621;BME280;29213;50.770;7.298;2023-03-14T05:04:15;98403.72;;;8.02;64.20
43621;BME280;29213;50.770;7.298;2023-03-14T05:06:40;98413.16;;;8.11;64.65
43621;BME280;29213;50.770;7.298;2023-03-14T05:09:07;98422.75;;;8.19;65.17
43621;BME280;29213;50.770;7.298;2023-03-14T05:11:33;98389.81;;;7.93;64.13
43621;BME280;29213;50.770;7.298;2023-03-14T05:13:58;98368.38;;;7.74;63.84
43621;BME280;29213;50.770;7.298;2023-03-14T05:16:24;98406.34;;;7.95;63.92
43621;BME280;29213;50.770;7.298;2023-03-14T05:18:50;98383.91;;;7.91;63.36
43621;BME280;29213;50.770;7.298;2023-03-14T05:21:15;98407.78;;;7.91;63.75
43621;BME280;29213;50.770;7.298;2023-03-14T05:23:41;98374.72;;;7.73;62.85
43621;BME280;29213;50.770;7.298;2023-03-14T05:26:06;98410.00;;;7.87;62.53
43621;BME280;29213;50.770;7.298;2023-03-14T05:28:32;98376.91;;;7.70;63.11
43621;BME280;29213;50.770;7.298;2023-03-14T05:30:57;98297.53;;;7.21;63.14
43621;BME280;29213;50.770;7.298;2023-03-14T05:33:22;98358.16;;;7.58;63.46
43621;BME280;29213;50.770;7.298;2023-03-14T05:35:48;98376.84;;;7.49;62.85
43621;BME280;29213;50.770;7.298;2023-03-14T05:38:13;98373.78;;;7.46;63.44
43621;BME280;29213;50.770;7.298;2023-03-14T05:40:39;98348.63;;;7.21;62.88
43621;BME280;29213;50.770;7.298;2023-03-14T05:43:04;98389.53;;;7.61;63.50
43621;BME280;29213;50.770;7.298;2023-03-14T05:45:29;98289.84;;;6.84;62.51
43621;BME280;29213;50.770;7.298;2023-03-14T05:47:55;98348.25;;;7.25;63.28
43621;BME280;29213;50.770;7.298;2023-03-14T05:50:20;98394.03;;;7.67;63.05
43621;BME280;29213;50.770;7.298;2023-03-14T05:52:45;98395.91;;;7.80;62.49
43621;BME280;29213;50.770;7.298;2023-03-14T05:55:11;98307.69;;;7.17;62.11
43621;BME280;29213;50.770;7.298;2023-03-14T05:57:36;98366.28;;;7.56;62.01
43621;BME280;29213;50.770;7.298;2023-03-14T06:00:02;98364.72;;;7.75;62.10
43621;BME280;29213;50.770;7.298;2023-03-14T06:02:28;98369.19;;;7.75;61.46
43621;BME280;29213;50.770;7.298;2023-03-14T06:04:53;98342.03;;;7.53;61.46
43621;BME280;29213;50.770;7.298;2023-03-14T06:07:18;98350.78;;;7.53;61.57
43621;BME280;29213;50.770;7.298;2023-03-14T06:09:44;98311.59;;;7.28;61.81
43621;BME280;29213;50.770;7.298;2023-03-14T06:12:09;98363.22;;;7.53;61.77
43621;BME280;29213;50.770;7.298;2023-03-14T06:14:35;98390.19;;;7.76;61.78
43621;BME280;29213;50.770;7.298;2023-03-14T06:17:00;98362.63;;;7.57;62.08
43621;BME280;29213;50.770;7.298;2023-03-14T06:19:25;98321.00;;;7.38;62.57
43621;BME280;29213;50.770;7.298;2023-03-14T06:21:51;98382.03;;;7.71;63.48
43621;BME280;29213;50.770;7.298;2023-03-14T06:24:17;98355.09;;;7.61;63.78
43621;BME280;29213;50.770;7.298;2023-03-14T06:26:42;98383.50;;;7.87;63.66
43621;BME280;29213;50.770;7.298;2023-03-14T06:29:08;98385.72;;;7.77;63.89
43621;BME280;29213;50.770;7.298;2023-03-14T06:31:34;98388.78;;;7.81;63.74
43621;BME280;29213;50.770;7.298;2023-03-14T06:33:59;98281.00;;;7.19;63.65
43621;BME280;29213;50.770;7.298;2023-03-14T06:36:25;98325.91;;;7.47;63.13
43621;BME280;29213;50.770;7.298;2023-03-14T06:38:50;98348.19;;;7.80;62.73
43621;BME280;29213;50.770;7.298;2023-03-14T06:41:16;98358.56;;;7.61;62.75
43621;BME280;29213;50.770;7.298;2023-03-14T06:43:41;98385.88;;;7.62;63.19
43621;BME280;29213;50.770;7.298;2023-03-14T06:46:07;98356.91;;;7.54;63.44
43621;BME280;29213;50.770;7.298;2023-03-14T06:48:32;98343.59;;;7.33;63.11
43621;BME280;29213;50.770;7.298;2023-03-14T06:50:58;98379.56;;;7.70;62.95
43621;BME280;29213;50.770;7.298;2023-03-14T06:53:23;98367.13;;;7.57;62.62
43621;BME280;29213;50.770;7.298;2023-03-14T06:55:49;98383.22;;;7.69;62.72
43621;BME280;29213;50.770;7.298;2023-03-14T06:58:14;98384.09;;;7.76;62.35
43621;BME280;29213;50.770;7.298;2023-03-14T07:00:40;98334.09;;;7.53;61.78
43621;BME280;29213;50.770;7.298;2023-03-14T07:03:05;98388.25;;;8.06;61.89
43621;BME280;29213;50.770;7.298;2023-03-14T07:05:31;98378.03;;;8.02;61.61
43621;BME280;29213;50.770;7.298;2023-03-14T07:07:56;98400.31;;;8.15;61.75
43621;BME280;29213;50.770;7.298;2023-03-14T07:10:22;98331.06;;;7.69;60.99
43621;BME280;29213;50.770;7.298;2023-03-14T07:12:47;98314.13;;;7.63;61.69
43621;BME280;29213;50.770;7.298;2023-03-14T07:15:12;98368.88;;;8.05;61.77
43621;BME280;29213;50.770;7.298;2023-03-14T07:17:38;98357.84;;;8.01;61.53
43621;BME280;29213;50.770;7.298;2023-03-14T07:20:03;98382.31;;;8.03;60.72
43621;BME280;29213;50.770;7.298;2023-03-14T07:22:30;98403.38;;;8.19;61.40
43621;BME280;29213;50.770;7.298;2023-03-14T07:24:56;98380.44;;;7.90;61.81
43621;BME280;29213;50.770;7.298;2023-03-14T07:27:21;98367.41;;;7.96;61.63
43621;BME280;29213;50.770;7.298;2023-03-14T07:29:46;98349.88;;;7.95;61.31
43621;BME280;29213;50.770;7.298;2023-03-14T07:32:12;98407.06;;;8.45;60.61
43621;BME280;29213;50.770;7.298;2023-03-14T07:34:41;98365.00;;;8.14;60.84
43621;BME280;29213;50.770;7.298;2023-03-14T07:37:06;98388.47;;;8.18;60.49
43621;BME280;29213;50.770;7.298;2023-03-14T07:39:31;98347.03;;;7.96;60.56
43621;BME280;29213;50.770;7.298;2023-03-14T07:41:57;98368.50;;;8.22;60.39
43621;BME280;29213;50.770;7.298;2023-03-14T07:44:22;98315.81;;;7.98;60.40
43621;BME280;29213;50.770;7.298;2023-03-14T07:46:48;98397.47;;;8.57;60.83
43621;BME280;29213;50.770;7.298;2023-03-14T07:49:13;98360.09;;;8.65;60.34
43621;BME280;29213;50.770;7.298;2023-03-14T07:51:38;98380.50;;;8.78;59.81
43621;BME280;29213;50.770;7.298;2023-03-14T07:54:04;98386.44;;;8.80;59.64
43621;BME280;29213;50.770;7.298;2023-03-14T07:56:29;98390.72;;;8.81;59.39
43621;BME280;29213;50.770;7.298;2023-03-14T07:58:56;98409.47;;;9.07;60.04
43621;BME280;29213;50.770;7.298;2023-03-14T08:01:21;98396.19;;;9.07;59.76
43621;BME280;29213;50.770;7.298;2023-03-14T08:03:47;98383.69;;;9.14;58.87
43621;BME280;29213;50.770;7.298;2023-03-14T08:06:12;98360.81;;;9.20;59.19
43621;BME280;29213;50.770;7.298;2023-03-14T08:08:38;98396.09;;;9.47;58.50
43621;BME280;29213;50.770;7.298;2023-03-14T08:11:05;98349.38;;;9.13;58.44
43621;BME280;29213;50.770;7.298;2023-03-14T08:13:31;98377.94;;;9.31;58.22
43621;BME280;29213;50.770;7.298;2023-03-14T08:15:56;98425.91;;;9.43;58.83
43621;BME280;29213;50.770;7.298;2023-03-14T08:18:24;98397.38;;;9.25;59.43
43621;BME280;29213;50.770;7.298;2023-03-14T08:20:49;98413.50;;;9.30;59.00
43621;BME280;29213;50.770;7.298;2023-03-14T08:23:15;98375.94;;;9.19;58.91
43621;BME280;29213;50.770;7.298;2023-03-14T08:25:40;98363.69;;;9.12;58.68
43621;BME280;29213;50.770;7.298;2023-03-14T08:28:05;98397.31;;;9.38;58.92
43621;BME280;29213;50.770;7.298;2023-03-14T08:30:31;98404.88;;;9.48;58.44
43621;BME280;29213;50.770;7.298;2023-03-14T08:32:57;98419.22;;;9.86;60.49
43621;BME280;29213;50.770;7.298;2023-03-14T08:35:23;98378.28;;;9.94;57.81
43621;BME280;29213;50.770;7.298;2023-03-14T08:37:49;98349.78;;;9.69;56.21
43621;BME280;29213;50.770;7.298;2023-03-14T08:40:14;98387.34;;;9.79;57.83
43621;BME280;29213;50.770;7.298;2023-03-14T08:42:40;98401.63;;;9.92;56.79
43621;BME280;29213;50.770;7.298;2023-03-14T08:45:08;98402.56;;;10.04;57.32
43621;BME280;29213;50.770;7.298;2023-03-14T08:47:33;98417.03;;;10.40;57.11
43621;BME280;29213;50.770;7.298;2023-03-14T08:49:59;98406.03;;;10.37;56.75
43621;BME280;29213;50.770;7.298;2023-03-14T08:52:24;98380.56;;;10.22;56.78
43621;BME280;29213;50.770;7.298;2023-03-14T08:54:50;98360.19;;;10.09;56.83
43621;BME280;29213;50.770;7.298;2023-03-14T08:57:15;98378.69;;;10.23;56.66
43621;BME280;29213;50.770;7.298;2023-03-14T08:59:40;98347.97;;;10.01;55.12
43621;BME280;29213;50.770;7.298;2023-03-14T09:02:06;98421.28;;;10.48;55.96
43621;BME280;29213;50.770;7.298;2023-03-14T09:04:32;98405.94;;;10.50;56.18
43621;BME280;29213;50.770;7.298;2023-03-14T09:06:58;98408.97;;;10.54;55.88
43621;BME280;29213;50.770;7.298;2023-03-14T09:09:25;98385.88;;;10.22;55.84
43621;BME280;29213;50.770;7.298;2023-03-14T09:11:52;98374.53;;;10.08;55.39
43621;BME280;29213;50.770;7.298;2023-03-14T09:14:17;98355.47;;;10.11;55.84
43621;BME280;29213;50.770;7.298;2023-03-14T09:16:43;98384.78;;;10.30;56.00
43621;BME280;29213;50.770;7.298;2023-03-14T09:19:08;98411.50;;;10.42;57.00
43621;BME280;29213;50.770;7.298;2023-03-14T09:21:33;98450.25;;;10.63;57.60
43621;BME280;29213;50.770;7.298;2023-03-14T09:23:59;98441.81;;;10.41;59.58
43621;BME280;29213;50.770;7.298;2023-03-14T09:26:24;98434.34;;;10.24;59.32
43621;BME280;29213;50.770;7.298;2023-03-14T09:28:50;98475.16;;;10.43;60.71
43621;BME280;29213;50.770;7.298;2023-03-14T09:31:15;98469.28;;;10.35;60.91
43621;BME280;29213;50.770;7.298;2023-03-14T09:33:41;98480.97;;;10.34;61.84
43621;BME280;29213;50.770;7.298;2023-03-14T09:36:07;98503.25;;;10.33;62.60
43621;BME280;29213;50.770;7.298;2023-03-14T09:38:33;98353.97;;;9.44;61.33
43621;BME280;29213;50.770;7.298;2023-03-14T09:41:01;98467.69;;;10.27;62.33
43621;BME280;29213;50.770;7.298;2023-03-14T09:43:33;98501.16;;;10.41;62.75
43621;BME280;29213;50.770;7.298;2023-03-14T09:46:01;98463.84;;;10.16;62.43
43621;BME280;29213;50.770;7.298;2023-03-14T09:48:30;98508.34;;;10.41;62.81
43621;BME280;29213;50.770;7.298;2023-03-14T09:50:59;98505.72;;;10.34;63.92
43621;BME280;29213;50.770;7.298;2023-03-14T09:53:36;98465.34;;;10.05;62.55
43621;BME280;29213;50.770;7.298;2023-03-14T09:56:02;98499.31;;;10.42;62.48
43621;BME280;29213;50.770;7.298;2023-03-14T09:58:29;98524.19;;;10.61;62.16
43621;BME280;29213;50.770;7.298;2023-03-14T10:00:56;98493.94;;;10.16;63.05
43621;BME280;29213;50.770;7.298;2023-03-14T10:03:31;98499.06;;;10.18;63.93
43621;BME280;29213;50.770;7.298;2023-03-14T10:05:57;98495.16;;;9.75;62.65
43621;BME280;29213;50.770;7.298;2023-03-14T10:08:23;98470.88;;;9.58;62.98
43621;BME280;29213;50.770;7.298;2023-03-14T10:10:48;98536.50;;;9.23;64.43
43621;BME280;29213;50.770;7.298;2023-03-14T10:13:22;98614.13;;;8.29;62.21
43621;BME280;29213;50.770;7.298;2023-03-14T10:15:55;98658.84;;;8.39;62.69
43621;BME280;29213;50.770;7.298;2023-03-14T10:18:24;98622.03;;;7.59;62.45
43621;BME280;29213;50.770;7.298;2023-03-14T10:21:02;98703.66;;;7.48;64.28
43621;BME280;29213;50.770;7.298;2023-03-14T10:23:30;98720.47;;;7.19;64.45
43621;BME280;29213;50.770;7.298;2023-03-14T10:26:07;98707.34;;;6.89;64.53
43621;BME280;29213;50.770;7.298;2023-03-14T10:28:39;98708.53;;;6.86;64.54
43621;BME280;29213;50.770;7.298;2023-03-14T10:31:05;98747.22;;;6.87;64.98
43621;BME280;29213;50.770;7.298;2023-03-14T10:33:33;98766.94;;;6.85;65.32
43621;BME280;29213;50.770;7.298;2023-03-14T10:36:05;98776.22;;;6.80;66.54
43621;BME280;29213;50.770;7.298;2023-03-14T10:38:36;98741.84;;;6.65;65.80
43621;BME280;29213;50.770;7.298;2023-03-14T10:41:15;98784.19;;;6.95;66.26
43621;BME280;29213;50.770;7.298;2023-03-14T10:43:41;98786.72;;;6.89;65.62
43621;BME280;29213;50.770;7.298;2023-03-14T10:46:14;98810.28;;;6.83;66.43
43621;BME280;29213;50.770;7.298;2023-03-14T10:48:41;98821.03;;;6.67;66.43
43621;BME280;29213;50.770;7.298;2023-03-14T10:54:02;98827.25;;;6.36;66.67
43621;BME280;29213;50.770;7.298;2023-03-14T10:56:34;98757.44;;;5.92;66.34
43621;BME280;29213;50.770;7.298;2023-03-14T10:59:02;98837.91;;;6.27;66.26
43621;BME280;29213;50.770;7.298;2023-03-14T11:04:49;98858.72;;;6.07;66.68
43621;BME280;29213;50.770;7.298;2023-03-14T11:07:39;98859.53;;;6.08;67.00
43621;BME280;29213;50.770;7.298;2023-03-14T11:15:45;98842.88;;;6.07;66.48
43621;BME280;29213;50.770;7.298;2023-03-14T11:21:02;98853.28;;;6.09;65.84
43621;BME280;29213;50.770;7.298;2023-03-14T11:29:20;98910.53;;;6.16;65.79
43621;BME280;29213;50.770;7.298;2023-03-14T11:31:47;98916.22;;;6.28;66.30
43621;BME280;29213;50.770;7.298;2023-03-14T11:34:17;98921.38;;;6.22;66.87
43621;BME280;29213;50.770;7.298;2023-03-14T11:36:55;98928.09;;;6.33;67.69
43621;BME280;29213;50.770;7.298;2023-03-14T11:39:26;98799.19;;;5.49;67.06
43621;BME280;29213;50.770;7.298;2023-03-14T11:41:57;98891.91;;;6.10;66.45
43621;BME280;29213;50.770;7.298;2023-03-14T11:44:30;98908.31;;;6.05;66.19
43621;BME280;29213;50.770;7.298;2023-03-14T11:47:08;98951.13;;;6.24;66.25
43621;BME280;29213;50.770;7.298;2023-03-14T11:49:53;98848.66;;;5.56;66.41
43621;BME280;29213;50.770;7.298;2023-03-14T11:52:47;98919.94;;;6.19;66.04
43621;BME280;29213;50.770;7.298;2023-03-14T11:55:26;98945.50;;;6.50;65.98
43621;BME280;29213;50.770;7.298;2023-03-14T11:57:56;98860.25;;;6.01;65.35
43621;BME280;29213;50.770;7.298;2023-03-14T12:00:24;98924.88;;;6.22;64.83
43621;BME280;29213;50.770;7.298;2023-03-14T12:08:43;98982.91;;;6.47;65.20
43621;BME280;29213;50.770;7.298;2023-03-14T12:11:12;98991.47;;;6.49;64.34
43621;BME280;29213;50.770;7.298;2023-03-14T12:13:39;99014.50;;;6.40;64.31
43621;BME280;29213;50.770;7.298;2023-03-14T12:18:52;99051.56;;;5.92;63.33
43621;BME280;29213;50.770;7.298;2023-03-14T12:21:19;99048.72;;;5.54;63.31
43621;BME280;29213;50.770;7.298;2023-03-14T12:23:50;99019.06;;;5.27;63.70
43621;BME280;29213;50.770;7.298;2023-03-14T12:26:21;99069.31;;;5.58;63.50
43621;BME280;29213;50.770;7.298;2023-03-14T12:39:33;99135.47;;;5.90;63.95
43621;BME280;29213;50.770;7.298;2023-03-14T12:45:22;99153.31;;;5.80;63.84
43621;BME280;29213;50.770;7.298;2023-03-14T12:48:00;99078.47;;;5.14;64.11
43621;BME280;29213;50.770;7.298;2023-03-14T12:50:36;99145.44;;;5.55;63.81
43621;BME280;29213;50.770;7.298;2023-03-14T12:56:27;99148.88;;;5.14;64.51
43621;BME280;29213;50.770;7.298;2023-03-14T12:59:21;99210.44;;;5.39;65.12
43621;BME280;29213;50.770;7.298;2023-03-14T13:04:52;99220.03;;;5.40;64.68
43621;BME280;29213;50.770;7.298;2023-03-14T13:13:22;99157.00;;;5.37;64.51
43621;BME280;29213;50.770;7.298;2023-03-14T13:15:49;99248.13;;;5.91;63.89
43621;BME280;29213;50.770;7.298;2023-03-14T13:18:40;99255.06;;;5.92;63.62
43621;BME280;29213;50.770;7.298;2023-03-14T13:21:24;99243.97;;;5.80;63.51
43621;BME280;29213;50.770;7.298;2023-03-14T13:24:02;99264.28;;;5.96;62.96
43621;BME280;29213;50.770;7.298;2023-03-14T13:26:36;99273.69;;;5.99;62.94
43621;BME280;29213;50.770;7.298;2023-03-14T13:29:23;99241.16;;;5.48;62.39
43621;BME280;29213;50.770;7.298;2023-03-14T13:31:54;99285.75;;;5.76;62.30
43621;BME280;29213;50.770;7.298;2023-03-14T13:34:25;99293.38;;;5.88;62.57
43621;BME280;29213;50.770;7.298;2023-03-14T13:36:53;99247.63;;;5.62;61.90
43621;BME280;29213;50.770;7.298;2023-03-14T13:39:21;99305.75;;;5.96;61.71
43621;BME280;29213;50.770;7.298;2023-03-14T13:41:53;99319.47;;;5.74;61.65
43621;BME280;29213;50.770;7.298;2023-03-14T13:44:26;99307.53;;;5.62;61.61
43621;BME280;29213;50.770;7.298;2023-03-14T13:46:57;99232.19;;;5.16;61.73
43621;BME280;29213;50.770;7.298;2023-03-14T13:49:24;99248.72;;;5.35;61.31
43621;BME280;29213;50.770;7.298;2023-03-14T13:51:50;99348.84;;;5.96;61.02
43621;BME280;29213;50.770;7.298;2023-03-14T13:54:18;99315.81;;;5.75;60.38
43621;BME280;29213;50.770;7.298;2023-03-14T13:56:44;99320.94;;;5.85;59.92
43621;BME280;29213;50.770;7.298;2023-03-14T13:59:24;99332.69;;;5.91;59.95
43621;BME280;29213;50.770;7.298;2023-03-14T14:01:50;99337.97;;;5.91;59.79
43621;BME280;29213;50.770;7.298;2023-03-14T14:04:19;99359.75;;;5.85;58.95
43621;BME280;29213;50.770;7.298;2023-03-14T14:06:56;99384.22;;;6.03;58.94
43621;BME280;29213;50.770;7.298;2023-03-14T14:09:27;99349.84;;;5.87;58.74
43621;BME280;29213;50.770;7.298;2023-03-14T14:12:05;99327.16;;;5.59;57.98
43621;BME280;29213;50.770;7.298;2023-03-14T14:14:38;99366.81;;;5.68;58.07
43621;BME280;29213;50.770;7.298;2023-03-14T14:17:07;99400.38;;;5.84;57.75
43621;BME280;29213;50.770;7.298;2023-03-14T14:19:35;99420.81;;;5.73;57.96